createdAt,value
2019-01-23T00:00:43.880Z,0.00
2019-01-23T00:01:43.700Z,0.00
2019-01-23T00:02:43.668Z,0.00
2019-01-23T00:03:43.620Z,0.00
2019-01-23T00:04:43.626Z,0.00
2019-01-23T00:05:43.539Z,0.00
2019-01-23T00:06:43.500Z,0.00
2019-01-23T00:07:43.460Z,0.00
2019-01-23T00:08:43.443Z,0.00
2019-01-23T00:09:43.418Z,0.00
2019-01-23T00:10:44.929Z,0.00
2019-01-23T00:11:43.300Z,0.00
2019-01-23T00:12:43.300Z,0.00
2019-01-23T00:13:43.216Z,0.00
2019-01-23T00:14:43.219Z,0.00
2019-01-23T00:15:43.971Z,0.00
2019-01-23T00:16:43.138Z,0.00
2019-01-23T00:17:43.053Z,0.00
2019-01-23T00:18:43.062Z,0.00
2019-01-23T00:19:43.021Z,0.00
2019-01-23T00:20:43.010Z,0.00
2019-01-23T00:21:42.904Z,0.00
2019-01-23T00:22:42.852Z,0.00
2019-01-23T00:23:43.018Z,0.00
2019-01-23T00:24:42.772Z,0.00
2019-01-23T00:25:42.734Z,0.00
2019-01-23T00:26:42.691Z,0.00
2019-01-23T00:27:42.659Z,0.00
2019-01-23T00:28:43.517Z,0.00
2019-01-23T00:29:42.617Z,0.00
2019-01-23T00:30:42.529Z,0.00
2019-01-23T00:31:42.493Z,0.00
2019-01-23T00:32:42.969Z,0.00
2019-01-23T00:33:42.408Z,0.00
2019-01-23T00:34:42.415Z,0.00
2019-01-23T00:35:42.326Z,0.00
2019-01-23T00:36:42.289Z,0.00
2019-01-23T00:37:42.967Z,0.00
2019-01-23T00:38:42.208Z,0.00
2019-01-23T00:39:42.211Z,0.00
2019-01-23T00:40:42.169Z,0.00
2019-01-23T00:41:42.090Z,0.00
2019-01-23T00:42:42.045Z,0.00
2019-01-23T00:43:42.005Z,0.00
2019-01-23T00:44:42.012Z,0.00
2019-01-23T00:45:41.925Z,0.00
2019-01-23T00:46:42.466Z,0.00
2019-01-23T00:47:41.840Z,0.00
2019-01-23T00:48:41.802Z,0.00
2019-01-23T00:49:41.810Z,0.00
2019-01-23T00:50:41.782Z,0.00
2019-01-23T00:51:42.874Z,0.00
2019-01-23T00:52:41.638Z,0.00
2019-01-23T00:53:41.645Z,0.00
2019-01-23T00:54:41.555Z,0.00
2019-01-23T00:55:41.524Z,0.00
2019-01-23T00:56:41.547Z,0.00
2019-01-23T00:57:41.439Z,0.00
2019-01-23T00:58:41.396Z,0.00
2019-01-23T00:59:41.354Z,0.00
2019-01-23T01:00:41.318Z,0.00
2019-01-23T01:01:41.336Z,0.00
2019-01-23T01:02:41.284Z,0.00
2019-01-23T01:03:41.191Z,0.00
2019-01-23T01:04:41.189Z,0.00
2019-01-23T01:05:41.971Z,0.00
2019-01-23T01:06:41.069Z,0.00
2019-01-23T01:07:41.101Z,0.00
2019-01-23T01:08:41.033Z,0.00
2019-01-23T01:09:40.945Z,0.00
2019-01-23T01:10:41.016Z,0.00
2019-01-23T01:11:40.869Z,0.00
2019-01-23T01:12:40.862Z,0.00
2019-01-23T01:13:40.825Z,0.00
2019-01-23T01:14:40.817Z,0.00
2019-01-23T01:15:41.374Z,0.00
2019-01-23T01:16:40.681Z,0.00
2019-01-23T01:17:40.637Z,0.00
2019-01-23T01:18:40.587Z,0.00
2019-01-23T01:19:40.612Z,0.00
2019-01-23T01:20:40.510Z,0.00
2019-01-23T01:21:40.479Z,0.00
2019-01-23T01:22:40.419Z,0.00
2019-01-23T01:23:40.978Z,0.00
2019-01-23T01:24:40.391Z,0.00
2019-01-23T01:25:40.298Z,0.00
2019-01-23T01:26:40.342Z,0.00
2019-01-23T01:27:40.221Z,0.00
2019-01-23T01:28:40.174Z,0.00
2019-01-23T01:29:40.203Z,0.00
2019-01-23T01:30:40.097Z,0.00
2019-01-23T01:31:40.967Z,0.00
2019-01-23T01:32:47.987Z,0.00
2019-01-23T01:33:39.977Z,0.00
2019-01-23T01:34:39.975Z,0.00
2019-01-23T01:35:39.935Z,0.00
2019-01-23T01:36:39.897Z,0.00
2019-01-23T01:37:39.808Z,0.00
2019-01-23T01:38:39.776Z,0.00
2019-01-23T01:39:40.511Z,0.00
2019-01-23T01:40:39.746Z,0.00
2019-01-23T01:41:40.491Z,0.00
2019-01-23T01:42:39.605Z,0.00
2019-01-23T01:43:39.566Z,0.00
2019-01-23T01:44:40.491Z,0.00
2019-01-23T01:45:39.530Z,0.00
2019-01-23T01:46:39.444Z,0.00
2019-01-23T01:47:39.409Z,0.00
2019-01-23T01:48:39.543Z,0.00
2019-01-23T01:49:39.319Z,0.00
2019-01-23T01:50:39.288Z,0.00
2019-01-23T01:51:39.251Z,0.00
2019-01-23T01:52:39.899Z,0.00
2019-01-23T01:53:39.213Z,0.00
2019-01-23T01:54:39.120Z,0.00
2019-01-23T01:55:39.080Z,0.00
2019-01-23T01:56:39.038Z,0.00
2019-01-23T01:57:38.998Z,0.00
2019-01-23T01:58:39.005Z,0.00
2019-01-23T01:59:38.925Z,0.00
2019-01-23T02:00:38.877Z,0.00
2019-01-23T02:01:38.838Z,0.00
2019-01-23T02:02:38.898Z,0.00
2019-01-23T02:03:39.488Z,0.00
2019-01-23T02:04:38.756Z,0.00
2019-01-23T02:05:38.676Z,0.00
2019-01-23T02:06:38.633Z,0.00
2019-01-23T02:07:38.644Z,0.00
2019-01-23T02:08:38.554Z,0.00
2019-01-23T02:09:38.560Z,0.00
2019-01-23T02:10:38.475Z,0.00
2019-01-23T02:11:38.435Z,0.00
2019-01-23T02:12:38.465Z,0.00
2019-01-23T02:13:38.991Z,0.00
2019-01-23T02:14:38.316Z,0.00
2019-01-23T02:15:38.319Z,0.00
2019-01-23T02:16:38.278Z,0.00
2019-01-23T02:17:38.238Z,0.00
2019-01-23T02:18:38.151Z,0.00
2019-01-23T02:19:38.538Z,0.00
2019-01-23T02:20:38.072Z,0.00
2019-01-23T02:21:39.038Z,0.00
2019-01-23T02:22:37.989Z,0.00
2019-01-23T02:23:37.950Z,0.00
2019-01-23T02:24:37.954Z,0.00
2019-01-23T02:25:38.033Z,0.00
2019-01-23T02:26:37.909Z,0.00
2019-01-23T02:27:37.834Z,0.00
2019-01-23T02:28:37.746Z,0.00
2019-01-23T02:29:37.720Z,0.00
2019-01-23T02:30:37.674Z,0.00
2019-01-23T02:31:37.718Z,0.00
2019-01-23T02:32:37.587Z,0.00
2019-01-23T02:33:37.592Z,0.00
2019-01-23T02:34:37.508Z,0.00
2019-01-23T02:35:37.469Z,0.00
2019-01-23T02:36:37.505Z,0.00
2019-01-23T02:37:37.386Z,0.00
2019-01-23T02:38:37.358Z,0.00
2019-01-23T02:39:37.308Z,0.00
2019-01-23T02:40:37.266Z,0.00
2019-01-23T02:41:37.281Z,0.00
2019-01-23T02:42:37.986Z,0.00
2019-01-23T02:43:37.146Z,0.00
2019-01-23T02:44:37.104Z,0.00
2019-01-23T02:45:37.068Z,0.00
2019-01-23T02:46:37.075Z,0.00
2019-01-23T02:47:36.991Z,0.00
2019-01-23T02:48:36.948Z,0.00
2019-01-23T02:49:36.989Z,0.00
2019-01-23T02:50:37.044Z,0.00
2019-01-23T02:51:36.869Z,0.00
2019-01-23T02:52:36.784Z,0.00
2019-01-23T02:53:36.745Z,0.00
2019-01-23T02:54:36.708Z,0.00
2019-01-23T02:55:36.663Z,0.00
2019-01-23T02:56:36.668Z,0.00
2019-01-23T02:57:36.590Z,0.00
2019-01-23T02:58:36.546Z,0.00
2019-01-23T02:59:36.518Z,0.00
2019-01-23T03:00:36.468Z,0.00
2019-01-23T03:01:36.538Z,0.00
2019-01-23T03:02:36.386Z,0.00
2019-01-23T03:03:36.345Z,0.00
2019-01-23T03:04:36.309Z,0.00
2019-01-23T03:05:36.992Z,0.00
2019-01-23T03:06:36.277Z,0.00
2019-01-23T03:07:36.225Z,0.00
2019-01-23T03:08:36.153Z,0.00
2019-01-23T03:09:36.105Z,0.00
2019-01-23T03:10:36.098Z,0.00
2019-01-23T03:11:36.029Z,0.00
2019-01-23T03:12:36.028Z,0.00
2019-01-23T03:13:35.949Z,0.00
2019-01-23T03:14:35.907Z,0.00
2019-01-23T03:15:35.881Z,0.00
2019-01-23T03:16:35.825Z,0.00
2019-01-23T03:17:35.823Z,0.00
2019-01-23T03:18:35.791Z,0.00
2019-01-23T03:19:35.706Z,0.00
2019-01-23T03:20:35.666Z,0.00
2019-01-23T03:21:35.625Z,0.00
2019-01-23T03:22:35.586Z,0.00
2019-01-23T03:23:35.601Z,0.00
2019-01-23T03:24:35.502Z,0.00
2019-01-23T03:25:35.463Z,0.00
2019-01-23T03:26:35.422Z,0.00
2019-01-23T03:27:35.386Z,0.00
2019-01-23T03:28:35.413Z,0.00
2019-01-23T03:29:35.377Z,0.00
2019-01-23T03:30:35.267Z,0.00
2019-01-23T03:31:35.236Z,0.00
2019-01-23T03:32:35.196Z,0.00
2019-01-23T03:33:35.186Z,0.00
2019-01-23T03:34:35.156Z,0.00
2019-01-23T03:35:35.118Z,0.00
2019-01-23T03:36:35.021Z,0.00
2019-01-23T03:37:34.983Z,0.00
2019-01-23T03:38:34.945Z,0.00
2019-01-23T03:39:34.904Z,0.00
2019-01-23T03:40:34.916Z,0.00
2019-01-23T03:41:34.828Z,0.00
2019-01-23T03:42:34.808Z,0.00
2019-01-23T03:43:35.511Z,0.00
2019-01-23T03:44:34.717Z,0.00
2019-01-23T03:45:34.733Z,0.00
2019-01-23T03:46:34.650Z,0.00
2019-01-23T03:47:34.587Z,0.00
2019-01-23T03:48:34.542Z,0.00
2019-01-23T03:49:34.521Z,0.00
2019-01-23T03:50:34.509Z,0.00
2019-01-23T03:51:34.426Z,0.00
2019-01-23T03:52:34.382Z,0.00
2019-01-23T03:53:34.346Z,0.00
2019-01-23T03:54:34.304Z,0.00
2019-01-23T03:55:34.327Z,0.00
2019-01-23T03:56:34.319Z,0.00
2019-01-23T03:57:34.185Z,0.00
2019-01-23T03:58:34.153Z,0.00
2019-01-23T03:59:34.115Z,0.00
2019-01-23T04:00:34.109Z,0.00
2019-01-23T04:01:34.558Z,0.00
2019-01-23T04:02:33.991Z,0.00
2019-01-23T04:03:33.947Z,0.00
2019-01-23T04:04:33.911Z,0.00
2019-01-23T04:05:33.876Z,0.00
2019-01-23T04:06:33.873Z,0.00
2019-01-23T04:07:33.786Z,0.00
2019-01-23T04:08:33.802Z,0.00
2019-01-23T04:09:33.719Z,0.00
2019-01-23T04:10:33.675Z,0.00
2019-01-23T04:11:33.630Z,0.00
2019-01-23T04:12:33.586Z,0.00
2019-01-23T04:13:33.606Z,0.00
2019-01-23T04:14:33.503Z,0.00
2019-01-23T04:15:33.464Z,0.00
2019-01-23T04:16:33.423Z,0.00
2019-01-23T04:17:33.384Z,0.00
2019-01-23T04:18:33.390Z,0.00
2019-01-23T04:19:33.325Z,0.00
2019-01-23T04:20:33.365Z,0.00
2019-01-23T04:21:33.244Z,0.00
2019-01-23T04:22:33.187Z,0.00
2019-01-23T04:23:33.144Z,0.00
2019-01-23T04:24:33.536Z,0.00
2019-01-23T04:25:33.067Z,0.00
2019-01-23T04:26:33.029Z,0.00
2019-01-23T04:27:32.987Z,0.00
2019-01-23T04:28:32.999Z,0.00
2019-01-23T04:29:39.292Z,0.00
2019-01-23T04:30:32.920Z,0.00
2019-01-23T04:31:32.843Z,0.00
2019-01-23T04:32:32.814Z,0.00
2019-01-23T04:33:32.752Z,0.00
2019-01-23T04:34:32.718Z,0.00
2019-01-23T04:35:32.711Z,0.00
2019-01-23T04:36:32.630Z,0.00
2019-01-23T04:37:32.592Z,0.00
2019-01-23T04:38:32.558Z,0.00
2019-01-23T04:39:32.505Z,0.00
2019-01-23T04:40:32.543Z,0.00
2019-01-23T04:41:32.424Z,0.00
2019-01-23T04:42:32.449Z,0.00
2019-01-23T04:43:32.401Z,0.00
2019-01-23T04:44:32.305Z,0.00
2019-01-23T04:45:32.268Z,0.00
2019-01-23T04:46:32.221Z,0.00
2019-01-23T04:47:32.230Z,0.00
2019-01-23T04:48:32.145Z,0.00
2019-01-23T04:49:32.122Z,0.00
2019-01-23T04:50:32.152Z,0.00
2019-01-23T04:51:32.029Z,0.00
2019-01-23T04:52:32.032Z,0.00
2019-01-23T04:53:31.943Z,0.00
2019-01-23T04:54:31.901Z,0.00
2019-01-23T04:55:31.901Z,0.00
2019-01-23T04:56:31.825Z,0.00
2019-01-23T04:57:31.792Z,0.00
2019-01-23T04:58:31.739Z,0.00
2019-01-23T04:59:31.748Z,0.00
2019-01-23T05:00:31.663Z,0.00
2019-01-23T05:01:31.622Z,0.00
2019-01-23T05:02:31.580Z,0.00
2019-01-23T05:03:31.628Z,0.00
2019-01-23T05:04:31.542Z,0.00
2019-01-23T05:05:31.457Z,0.00
2019-01-23T05:06:31.462Z,0.00
2019-01-23T05:07:31.392Z,0.00
2019-01-23T05:08:31.391Z,0.00
2019-01-23T05:09:31.295Z,0.00
2019-01-23T05:10:31.320Z,0.00
2019-01-23T05:11:31.224Z,0.00
2019-01-23T05:12:31.177Z,0.00
2019-01-23T05:13:31.185Z,0.00
2019-01-23T05:14:31.146Z,0.00
2019-01-23T05:15:31.055Z,0.00
2019-01-23T05:16:31.059Z,0.00
2019-01-23T05:17:30.974Z,0.00
2019-01-23T05:18:31.093Z,0.00
2019-01-23T05:19:30.895Z,0.00
2019-01-23T05:20:30.847Z,0.00
2019-01-23T05:21:30.859Z,0.00
2019-01-23T05:22:30.806Z,0.00
2019-01-23T05:23:30.798Z,0.00
2019-01-23T05:24:30.700Z,0.00
2019-01-23T05:25:30.654Z,0.00
2019-01-23T05:26:30.658Z,0.00
2019-01-23T05:27:30.574Z,0.00
2019-01-23T05:28:30.585Z,0.00
2019-01-23T05:29:30.732Z,0.00
2019-01-23T05:30:30.446Z,0.00
2019-01-23T05:31:30.406Z,0.00
2019-01-23T05:32:30.362Z,0.00
2019-01-23T05:33:30.377Z,0.00
2019-01-23T05:34:30.291Z,0.00
2019-01-23T05:35:30.241Z,0.00
2019-01-23T05:36:30.209Z,0.00
2019-01-23T05:37:30.994Z,0.00
2019-01-23T05:38:30.623Z,0.00
2019-01-23T05:39:30.081Z,0.00
2019-01-23T05:40:30.126Z,0.00
2019-01-23T05:41:30.987Z,0.00
2019-01-23T05:42:29.958Z,0.00
2019-01-23T05:43:30.002Z,0.00
2019-01-23T05:44:29.938Z,0.00
2019-01-23T05:45:29.836Z,0.00
2019-01-23T05:46:29.808Z,0.00
2019-01-23T05:47:29.758Z,0.00
2019-01-23T05:48:29.718Z,0.00
2019-01-23T05:49:29.715Z,0.00
2019-01-23T05:50:29.638Z,0.00
2019-01-23T05:51:29.644Z,0.00
2019-01-23T05:52:30.600Z,0.00
2019-01-23T05:53:29.520Z,0.00
2019-01-23T05:54:29.488Z,0.00
2019-01-23T05:55:29.435Z,0.00
2019-01-23T05:56:29.458Z,0.00
2019-01-23T05:57:29.349Z,0.00
2019-01-23T05:58:29.314Z,0.00
2019-01-23T05:59:29.337Z,0.00
2019-01-23T06:00:29.274Z,0.00
2019-01-23T06:01:29.188Z,0.00
2019-01-23T06:02:29.215Z,0.00
2019-01-23T06:03:29.105Z,0.00
2019-01-23T06:04:29.068Z,0.00
2019-01-23T06:05:29.037Z,0.00
2019-01-23T06:06:28.990Z,0.00
2019-01-23T06:07:29.004Z,0.00
2019-01-23T06:08:28.910Z,0.00
2019-01-23T06:09:28.865Z,0.00
2019-01-23T06:10:28.826Z,0.00
2019-01-23T06:11:28.804Z,0.00
2019-01-23T06:12:28.801Z,0.00
2019-01-23T06:13:28.702Z,0.00
2019-01-23T06:14:28.665Z,0.00
2019-01-23T06:15:28.620Z,0.00
2019-01-23T06:16:28.579Z,0.00
2019-01-23T06:17:28.608Z,0.00
2019-01-23T06:18:28.540Z,0.00
2019-01-23T06:19:28.492Z,0.00
2019-01-23T06:20:28.424Z,0.00
2019-01-23T06:21:28.383Z,0.00
2019-01-23T06:22:28.385Z,0.00
2019-01-23T06:23:28.296Z,0.00
2019-01-23T06:24:28.279Z,0.00
2019-01-23T06:25:28.329Z,0.00
2019-01-23T06:26:28.176Z,4.00
2019-01-23T06:27:28.937Z,0.00
2019-01-23T06:28:28.151Z,0.00
2019-01-23T06:29:28.087Z,4.00
2019-01-23T06:30:28.012Z,4.00
2019-01-23T06:31:27.990Z,4.00
2019-01-23T06:32:27.933Z,4.00
2019-01-23T06:33:27.942Z,4.00
2019-01-23T06:34:27.854Z,4.00
2019-01-23T06:35:27.821Z,4.00
2019-01-23T06:36:27.773Z,8.00
2019-01-23T06:37:27.799Z,8.00
2019-01-23T06:38:27.748Z,12.00
2019-01-23T06:39:27.654Z,12.00
2019-01-23T06:40:27.611Z,12.00
2019-01-23T06:41:27.594Z,20.00
2019-01-23T06:42:27.527Z,20.00
2019-01-23T06:43:27.534Z,24.00
2019-01-23T06:44:27.449Z,24.00
2019-01-23T06:45:27.419Z,28.00
2019-01-23T06:46:27.405Z,36.00
2019-01-23T06:47:27.328Z,40.00
2019-01-23T06:48:27.288Z,44.00
2019-01-23T06:49:27.249Z,52.00
2019-01-23T06:50:27.206Z,56.00
2019-01-23T06:51:27.223Z,60.00
2019-01-23T06:52:27.121Z,68.00
2019-01-23T06:53:27.100Z,76.00
2019-01-23T06:54:27.044Z,88.00
2019-01-23T06:55:27.055Z,96.00
2019-01-23T06:56:27.001Z,108.00
2019-01-23T06:57:26.929Z,116.00
2019-01-23T06:58:26.886Z,132.00
2019-01-23T06:59:26.861Z,140.00
2019-01-23T07:00:26.846Z,156.00
2019-01-23T07:01:26.763Z,172.00
2019-01-23T07:02:26.724Z,180.00
2019-01-23T07:03:26.685Z,200.00
2019-01-23T07:04:26.643Z,216.00
2019-01-23T07:05:26.645Z,240.00
2019-01-23T07:06:26.561Z,256.00
2019-01-23T07:07:26.525Z,260.00
2019-01-23T07:08:26.535Z,272.00
2019-01-23T07:09:26.437Z,292.00
2019-01-23T07:10:26.451Z,320.00
2019-01-23T07:11:26.361Z,336.00
2019-01-23T07:12:26.319Z,344.00
2019-01-23T07:13:26.281Z,344.00
2019-01-23T07:14:26.239Z,376.00
2019-01-23T07:15:26.254Z,412.00
2019-01-23T07:16:26.167Z,452.00
2019-01-23T07:17:26.164Z,456.00
2019-01-23T07:18:26.082Z,500.00
2019-01-23T07:19:26.043Z,516.00
2019-01-23T07:20:26.048Z,540.00
2019-01-23T07:21:25.991Z,552.00
2019-01-23T07:22:25.977Z,568.00
2019-01-23T07:23:25.880Z,620.00
2019-01-23T07:24:25.963Z,660.00
2019-01-23T07:25:25.803Z,680.00
2019-01-23T07:26:25.763Z,728.00
2019-01-23T07:27:25.762Z,740.00
2019-01-23T07:28:25.683Z,796.00
2019-01-23T07:29:25.657Z,784.00
2019-01-23T07:30:26.490Z,820.00
2019-01-23T07:31:25.605Z,876.00
2019-01-23T07:32:25.578Z,936.00
2019-01-23T07:33:32.566Z,1044.00
2019-01-23T07:34:25.507Z,996.00
2019-01-23T07:35:25.405Z,1104.00
2019-01-23T07:36:25.366Z,1072.00
2019-01-23T07:37:25.331Z,1092.00
2019-01-23T07:38:25.284Z,1212.00
2019-01-23T07:39:25.285Z,1192.00
2019-01-23T07:40:25.245Z,1200.00
2019-01-23T07:41:25.169Z,1252.00
2019-01-23T07:42:25.173Z,1412.00
2019-01-23T07:43:25.085Z,1356.00
2019-01-23T07:44:25.091Z,1424.00
2019-01-23T07:45:25.007Z,1548.00
2019-01-23T07:46:24.968Z,1480.00
2019-01-23T07:47:24.968Z,1616.00
2019-01-23T07:48:24.892Z,1648.00
2019-01-23T07:49:24.845Z,1848.00
2019-01-23T07:50:24.867Z,1696.00
2019-01-23T07:51:24.766Z,1924.00
2019-01-23T07:52:24.723Z,1828.00
2019-01-23T07:53:24.684Z,1752.00
2019-01-23T07:54:24.647Z,1812.00
2019-01-23T07:55:24.652Z,2168.00
2019-01-23T07:56:24.565Z,2168.00
2019-01-23T07:57:24.528Z,2208.00
2019-01-23T07:58:24.489Z,1920.00
2019-01-23T07:59:24.488Z,1820.00
2019-01-23T08:00:31.020Z,2020.00
2019-01-23T08:01:24.371Z,2100.00
2019-01-23T08:02:24.332Z,2092.00
2019-01-23T08:03:24.288Z,2092.00
2019-01-23T08:04:24.250Z,2440.00
2019-01-23T08:05:24.251Z,2824.00
2019-01-23T08:06:24.212Z,2760.00
2019-01-23T08:07:24.137Z,2540.00
2019-01-23T08:08:24.642Z,2956.00
2019-01-23T08:09:24.058Z,2836.00
2019-01-23T08:10:24.028Z,2724.00
2019-01-23T08:11:23.978Z,3172.00
2019-01-23T08:12:23.982Z,2468.00
2019-01-23T08:13:23.967Z,2416.00
2019-01-23T08:14:23.855Z,2560.00
2019-01-23T08:15:23.816Z,2888.00
2019-01-23T08:16:23.778Z,3284.00
2019-01-23T08:17:23.734Z,3648.00
2019-01-23T08:18:23.742Z,3260.00
2019-01-23T08:19:23.658Z,2928.00
2019-01-23T08:20:23.615Z,3064.00
2019-01-23T08:21:23.621Z,3388.00
2019-01-23T08:22:23.599Z,3760.00
2019-01-23T08:23:23.506Z,3368.00
2019-01-23T08:24:23.463Z,2924.00
2019-01-23T08:25:23.467Z,2760.00
2019-01-23T08:26:23.383Z,3300.00
2019-01-23T08:27:23.390Z,3416.00
2019-01-23T08:28:23.302Z,3004.00
2019-01-23T08:29:23.264Z,3172.00
2019-01-23T08:30:23.291Z,2892.00
2019-01-23T08:31:23.253Z,2844.00
2019-01-23T08:32:23.152Z,3344.00
2019-01-23T08:33:23.105Z,3520.00
2019-01-23T08:34:23.073Z,3976.00
2019-01-23T08:35:23.072Z,3624.00
2019-01-23T08:36:22.992Z,3380.00
2019-01-23T08:37:22.992Z,3320.00
2019-01-23T08:38:22.911Z,3340.00
2019-01-23T08:39:22.871Z,3836.00
2019-01-23T08:40:22.853Z,4268.00
2019-01-23T08:41:22.789Z,4180.00
2019-01-23T08:42:22.795Z,4564.00
2019-01-23T08:43:22.764Z,3744.00
2019-01-23T08:44:22.675Z,2928.00
2019-01-23T08:45:22.634Z,2812.00
2019-01-23T08:46:22.599Z,3116.00
2019-01-23T08:47:22.607Z,3384.00
2019-01-23T08:48:22.573Z,3624.00
2019-01-23T08:49:22.478Z,3488.00
2019-01-23T08:50:22.439Z,3652.00
2019-01-23T08:51:22.401Z,3692.00
2019-01-23T08:52:22.371Z,4212.00
2019-01-23T08:53:22.586Z,5092.00
2019-01-23T08:54:22.288Z,5816.00
2019-01-23T08:55:23.045Z,5948.00
2019-01-23T08:56:22.206Z,4528.00
2019-01-23T08:57:22.166Z,4444.00
2019-01-23T08:58:22.304Z,4444.00
2019-01-23T08:59:22.137Z,3760.00
2019-01-23T09:00:22.051Z,3504.00
2019-01-23T09:01:22.019Z,3472.00
2019-01-23T09:02:21.973Z,3452.00
2019-01-23T09:03:21.932Z,3620.00
2019-01-23T09:04:22.578Z,3876.00
2019-01-23T09:05:21.858Z,4444.00
2019-01-23T09:06:21.915Z,5004.00
2019-01-23T09:07:21.777Z,5484.00
2019-01-23T09:08:21.803Z,6088.00
2019-01-23T09:09:21.699Z,5772.00
2019-01-23T09:10:21.672Z,4844.00
2019-01-23T09:11:21.627Z,4220.00
2019-01-23T09:12:21.584Z,3624.00
2019-01-23T09:13:21.593Z,3808.00
2019-01-23T09:14:21.504Z,4272.00
2019-01-23T09:15:21.470Z,4376.00
2019-01-23T09:16:21.430Z,4604.00
2019-01-23T09:17:21.437Z,4644.00
2019-01-23T09:18:21.416Z,4468.00
2019-01-23T09:19:21.325Z,5044.00
2019-01-23T09:20:21.277Z,5112.00
2019-01-23T09:21:21.237Z,5280.00
2019-01-23T09:22:21.287Z,5892.00
2019-01-23T09:23:22.019Z,5300.00
2019-01-23T09:24:21.161Z,4620.00
2019-01-23T09:25:21.087Z,4600.00
2019-01-23T09:26:21.068Z,3812.00
2019-01-23T09:27:21.073Z,4120.00
2019-01-23T09:28:20.988Z,4132.00
2019-01-23T09:29:20.931Z,3964.00
2019-01-23T09:30:20.891Z,3228.00
2019-01-23T09:31:20.852Z,3360.00
2019-01-23T09:32:20.860Z,3544.00
2019-01-23T09:33:20.778Z,3552.00
2019-01-23T09:34:20.812Z,3752.00
2019-01-23T09:35:20.702Z,4236.00
2019-01-23T09:36:20.665Z,4300.00
2019-01-23T09:37:20.623Z,5132.00
2019-01-23T09:38:20.587Z,5276.00
2019-01-23T09:39:20.590Z,4948.00
2019-01-23T09:40:20.505Z,5912.00
2019-01-23T09:41:20.467Z,5784.00
2019-01-23T09:42:20.449Z,4936.00
2019-01-23T09:43:20.395Z,4208.00
2019-01-23T09:44:20.399Z,4184.00
2019-01-23T09:45:20.313Z,4104.00
2019-01-23T09:46:20.320Z,4948.00
2019-01-23T09:47:20.235Z,4892.00
2019-01-23T09:48:20.204Z,5220.00
2019-01-23T09:49:20.203Z,5588.00
2019-01-23T09:50:20.241Z,5872.00
2019-01-23T09:51:20.085Z,5252.00
2019-01-23T09:52:20.050Z,4988.00
2019-01-23T09:53:20.026Z,4468.00
2019-01-23T09:54:19.967Z,4500.00
2019-01-23T09:55:19.990Z,5072.00
2019-01-23T09:56:20.014Z,5060.00
2019-01-23T09:57:19.853Z,5492.00
2019-01-23T09:58:19.814Z,4812.00
2019-01-23T09:59:19.775Z,5896.00
2019-01-23T10:00:19.789Z,5396.00
2019-01-23T10:01:19.723Z,4928.00
2019-01-23T10:02:19.663Z,4108.00
2019-01-23T10:03:23.006Z,4804.00
2019-01-23T10:04:19.586Z,4792.00
2019-01-23T10:05:19.602Z,5180.00
2019-01-23T10:06:19.501Z,5704.00
2019-01-23T10:07:19.471Z,4896.00
2019-01-23T10:08:19.429Z,4180.00
2019-01-23T10:09:19.428Z,3928.00
2019-01-23T10:10:19.395Z,4288.00
2019-01-23T10:11:19.312Z,4536.00
2019-01-23T10:12:19.274Z,4332.00
2019-01-23T10:13:19.235Z,4540.00
2019-01-23T10:14:19.237Z,4384.00
2019-01-23T10:15:19.213Z,4680.00
2019-01-23T10:16:19.137Z,5112.00
2019-01-23T10:17:19.110Z,5120.00
2019-01-23T10:18:19.039Z,5040.00
2019-01-23T10:19:19.052Z,5380.00
2019-01-23T10:20:18.964Z,4992.00
2019-01-23T10:21:18.933Z,5040.00
2019-01-23T10:22:18.896Z,4848.00
2019-01-23T10:23:22.428Z,4884.00
2019-01-23T10:24:18.867Z,5108.00
2019-01-23T10:25:19.535Z,6060.00
2019-01-23T10:26:18.729Z,6076.00
2019-01-23T10:27:18.698Z,6004.00
2019-01-23T10:28:23.431Z,6328.00
2019-01-23T10:29:18.663Z,6504.00
2019-01-23T10:30:18.624Z,6060.00
2019-01-23T10:31:18.629Z,6920.00
2019-01-23T10:32:18.498Z,6928.00
2019-01-23T10:33:18.464Z,6484.00
2019-01-23T10:34:18.422Z,6620.00
2019-01-23T10:35:18.381Z,6412.00
2019-01-23T10:36:18.408Z,6848.00
2019-01-23T10:37:19.611Z,7296.00
2019-01-23T10:38:18.289Z,6708.00
2019-01-23T10:39:18.232Z,6704.00
2019-01-23T10:40:18.195Z,7080.00
2019-01-23T10:41:18.188Z,6388.00
2019-01-23T10:42:18.157Z,6116.00
2019-01-23T10:43:18.139Z,6020.00
2019-01-23T10:44:19.042Z,6108.00
2019-01-23T10:45:18.000Z,6744.00
2019-01-23T10:46:17.971Z,6752.00
2019-01-23T10:47:17.949Z,7560.00
2019-01-23T10:48:17.938Z,7776.00
2019-01-23T10:49:17.841Z,7596.00
2019-01-23T10:50:17.807Z,7460.00
2019-01-23T10:51:17.773Z,7212.00
2019-01-23T10:52:17.735Z,7304.00
2019-01-23T10:53:18.073Z,6744.00
2019-01-23T10:54:17.653Z,6652.00
2019-01-23T10:55:17.655Z,5896.00
2019-01-23T10:56:17.577Z,5432.00
2019-01-23T10:57:17.538Z,5380.00
2019-01-23T10:58:17.512Z,5780.00
2019-01-23T10:59:17.503Z,5444.00
2019-01-23T11:00:17.485Z,5264.00
2019-01-23T11:01:17.451Z,5380.00
2019-01-23T11:02:17.347Z,5368.00
2019-01-23T11:03:17.307Z,5428.00
2019-01-23T11:04:17.276Z,6016.00
2019-01-23T11:05:17.235Z,6924.00
2019-01-23T11:06:17.244Z,6980.00
2019-01-23T11:07:17.259Z,7440.00
2019-01-23T11:08:17.116Z,8020.00
2019-01-23T11:09:17.138Z,8656.00
2019-01-23T11:10:17.043Z,9204.00
2019-01-23T11:11:17.050Z,8540.00
2019-01-23T11:12:16.965Z,8132.00
2019-01-23T11:13:16.926Z,8452.00
2019-01-23T11:14:16.918Z,8312.00
2019-01-23T11:15:16.850Z,7612.00
2019-01-23T11:16:16.881Z,7156.00
2019-01-23T11:17:16.787Z,6780.00
2019-01-23T11:18:16.747Z,6172.00
2019-01-23T11:19:16.699Z,6036.00
2019-01-23T11:20:16.668Z,6020.00
2019-01-23T11:21:17.664Z,5776.00
2019-01-23T11:22:16.643Z,5900.00
2019-01-23T11:23:16.586Z,5276.00
2019-01-23T11:24:16.507Z,5240.00
2019-01-23T11:25:16.470Z,5380.00
2019-01-23T11:26:16.492Z,5200.00
2019-01-23T11:27:16.405Z,4952.00
2019-01-23T11:28:16.476Z,4892.00
2019-01-23T11:29:16.316Z,4904.00
2019-01-23T11:30:16.294Z,5068.00
2019-01-23T11:31:20.345Z,5024.00
2019-01-23T11:32:16.202Z,5432.00
2019-01-23T11:33:16.164Z,4968.00
2019-01-23T11:34:16.132Z,5200.00
2019-01-23T11:35:16.088Z,5640.00
2019-01-23T11:36:16.096Z,5564.00
2019-01-23T11:37:16.009Z,5412.00
2019-01-23T11:38:15.976Z,5144.00
2019-01-23T11:39:15.992Z,5032.00
2019-01-23T11:40:15.898Z,5364.00
2019-01-23T11:41:15.859Z,5192.00
2019-01-23T11:42:15.822Z,5096.00
2019-01-23T11:43:15.791Z,5084.00
2019-01-23T11:44:15.790Z,5124.00
2019-01-23T11:45:15.710Z,5340.00
2019-01-23T11:46:15.717Z,5376.00
2019-01-23T11:47:15.631Z,5620.00
2019-01-23T11:48:15.660Z,5596.00
2019-01-23T11:49:15.552Z,5872.00
2019-01-23T11:50:21.840Z,6168.00
2019-01-23T11:51:15.474Z,6444.00
2019-01-23T11:52:15.439Z,5900.00
2019-01-23T11:53:15.434Z,6080.00
2019-01-23T11:54:15.414Z,5920.00
2019-01-23T11:55:15.361Z,5380.00
2019-01-23T11:56:15.326Z,5224.00
2019-01-23T11:57:15.242Z,5120.00
2019-01-23T11:58:15.209Z,5000.00
2019-01-23T11:59:15.163Z,4928.00
2019-01-23T12:00:15.211Z,4848.00
2019-01-23T12:01:15.144Z,4708.00
2019-01-23T12:02:15.049Z,4820.00
2019-01-23T12:03:20.855Z,4664.00
2019-01-23T12:04:14.972Z,4560.00
2019-01-23T12:05:14.948Z,4512.00
2019-01-23T12:06:14.902Z,4476.00
2019-01-23T12:07:14.862Z,4392.00
2019-01-23T12:08:14.871Z,4244.00
2019-01-23T12:09:14.824Z,4204.00
2019-01-23T12:10:14.740Z,4224.00
2019-01-23T12:11:14.700Z,4264.00
2019-01-23T12:12:14.664Z,4320.00
2019-01-23T12:13:14.626Z,4336.00
2019-01-23T12:14:14.630Z,4308.00
2019-01-23T12:15:14.552Z,4388.00
2019-01-23T12:16:14.553Z,4416.00
2019-01-23T12:17:14.541Z,4500.00
2019-01-23T12:18:14.433Z,4516.00
2019-01-23T12:19:15.030Z,4480.00
2019-01-23T12:20:14.353Z,4456.00
2019-01-23T12:21:14.374Z,4440.00
2019-01-23T12:22:14.286Z,4384.00
2019-01-23T12:23:14.241Z,4352.00
2019-01-23T12:24:14.198Z,4328.00
2019-01-23T12:25:14.166Z,4320.00
2019-01-23T12:26:14.165Z,4368.00
2019-01-23T12:27:14.092Z,4440.00
2019-01-23T12:28:14.045Z,4528.00
2019-01-23T12:29:14.008Z,4548.00
2019-01-23T12:30:13.963Z,4520.00
2019-01-23T12:31:14.073Z,4492.00
2019-01-23T12:32:13.888Z,4480.00
2019-01-23T12:33:13.856Z,4496.00
2019-01-23T12:34:13.820Z,4564.00
2019-01-23T12:35:13.770Z,4672.00
2019-01-23T12:36:13.777Z,4720.00
2019-01-23T12:37:13.694Z,4748.00
2019-01-23T12:38:13.718Z,4760.00
2019-01-23T12:39:13.622Z,4764.00
2019-01-23T12:40:13.576Z,4760.00
2019-01-23T12:41:13.539Z,4784.00
2019-01-23T12:42:13.506Z,4800.00
2019-01-23T12:43:13.523Z,4784.00
2019-01-23T12:44:13.427Z,4788.00